createdAt,value
2022-08-22T00:01:44.613Z,12.95
2022-08-22T00:03:03.717Z,9.07
2022-08-22T00:04:38.290Z,14.57
2022-08-22T00:07:10.967Z,11.10
2022-08-22T00:09:44.602Z,12.30
2022-08-22T00:12:24.854Z,11.55
2022-08-22T00:15:06.883Z,10.10
2022-08-22T00:17:47.058Z,13.77
2022-08-22T00:20:36.180Z,12.10
2022-08-22T00:23:22.827Z,11.20
2022-08-22T00:26:21.384Z,11.35
2022-08-22T00:29:00.040Z,8.50
2022-08-22T00:31:27.304Z,9.90
2022-08-22T00:34:16.063Z,10.85
2022-08-22T00:37:09.664Z,9.63
2022-08-22T00:39:55.677Z,9.90
2022-08-22T00:42:57.285Z,21.80
2022-08-22T00:45:33.621Z,9.43
2022-08-22T00:48:22.889Z,11.35
2022-08-22T00:51:03.356Z,13.07
2022-08-22T00:53:51.012Z,10.65
2022-08-22T00:56:26.759Z,10.88
2022-08-22T00:59:28.984Z,17.20
2022-08-22T01:02:31.667Z,10.82
2022-08-22T01:05:32.188Z,13.07
2022-08-22T01:08:14.193Z,12.15
2022-08-22T01:11:26.241Z,10.05
2022-08-22T01:14:04.116Z,12.02
2022-08-22T01:16:43.136Z,10.15
2022-08-22T01:19:40.882Z,12.98
2022-08-22T01:22:38.725Z,11.40
2022-08-22T01:25:43.277Z,10.95
2022-08-22T01:28:23.288Z,13.40
2022-08-22T01:31:42.385Z,13.68
2022-08-22T01:34:21.966Z,9.00
2022-08-22T01:37:26.914Z,13.65
2022-08-22T01:40:27.683Z,12.80
2022-08-22T01:43:19.826Z,10.27
2022-08-22T01:46:33.950Z,17.00
2022-08-22T01:49:22.462Z,10.02
2022-08-22T01:52:20.263Z,7.70
2022-08-22T01:55:02.780Z,11.23
2022-08-22T01:57:30.240Z,13.93
2022-08-22T02:00:07.736Z,12.60
2022-08-22T02:03:10.682Z,13.45
2022-08-22T02:05:49.885Z,12.82
2022-08-22T02:08:39.399Z,16.63
2022-08-22T02:11:29.852Z,13.00
2022-08-22T02:14:18.719Z,13.82
2022-08-22T02:16:52.440Z,14.40
2022-08-22T02:19:40.758Z,16.63
2022-08-22T02:22:26.997Z,11.07
2022-08-22T02:25:36.388Z,13.07
2022-08-22T02:28:13.015Z,20.02
2022-08-22T02:30:54.178Z,13.68
2022-08-22T02:33:46.197Z,12.63
2022-08-22T02:36:19.012Z,14.55
2022-08-22T02:39:07.213Z,11.82
2022-08-22T02:41:53.136Z,16.95
2022-08-22T02:44:28.082Z,13.00
2022-08-22T02:47:05.126Z,11.60
2022-08-22T02:49:52.028Z,13.02
2022-08-22T02:52:28.649Z,10.60
2022-08-22T02:55:21.572Z,17.15
2022-08-22T02:57:59.927Z,13.17
2022-08-22T03:00:32.328Z,15.05
2022-08-22T03:03:05.249Z,10.75
2022-08-22T03:05:38.635Z,13.77
2022-08-22T03:08:13.421Z,13.10
2022-08-22T03:10:46.641Z,15.90
2022-08-22T03:13:16.902Z,15.05
2022-08-22T03:15:56.685Z,10.45
2022-08-22T03:18:53.642Z,12.68
2022-08-22T03:21:48.278Z,14.80
2022-08-22T03:24:23.549Z,10.80
2022-08-22T03:27:13.054Z,12.90
2022-08-22T03:29:51.084Z,11.57
2022-08-22T03:32:20.014Z,16.90
2022-08-22T03:35:08.158Z,12.05
2022-08-22T03:37:43.288Z,11.10
2022-08-22T03:40:32.430Z,19.48
2022-08-22T03:43:06.854Z,13.63
2022-08-22T03:46:10.979Z,11.13
2022-08-22T03:48:57.218Z,17.92
2022-08-22T03:51:32.631Z,19.25
2022-08-22T03:54:26.306Z,15.20
2022-08-22T03:57:05.949Z,15.43
2022-08-22T03:59:57.769Z,15.30
2022-08-22T04:03:04.848Z,16.08
2022-08-22T04:05:40.792Z,14.82
2022-08-22T04:08:33.172Z,18.60
2022-08-22T04:11:24.277Z,16.95
2022-08-22T04:14:16.416Z,19.27
2022-08-22T04:17:12.874Z,13.60
2022-08-22T04:20:09.380Z,17.27
2022-08-22T04:23:00.715Z,12.75
2022-08-22T04:25:43.153Z,19.23
2022-08-22T04:28:20.408Z,18.33
2022-08-22T04:31:11.678Z,23.92
2022-08-22T04:34:24.813Z,18.73
2022-08-22T04:37:06.565Z,21.52
2022-08-22T04:39:41.815Z,17.73
2022-08-22T04:42:32.333Z,21.33
2022-08-22T04:45:09.493Z,18.95
2022-08-22T04:47:41.957Z,21.92
2022-08-22T04:50:34.945Z,14.77
2022-08-22T04:53:14.867Z,15.48
2022-08-22T04:56:17.191Z,13.50
2022-08-22T04:59:01.288Z,13.43
2022-08-22T05:01:43.192Z,12.43
2022-08-22T05:04:30.487Z,21.13
2022-08-22T05:07:04.526Z,14.38
2022-08-22T05:09:35.605Z,13.90
2022-08-22T05:12:09.050Z,14.35
2022-08-22T05:14:41.583Z,15.98
2022-08-22T05:17:12.314Z,13.13
2022-08-22T05:19:47.799Z,16.95
2022-08-22T05:22:21.102Z,15.65
2022-08-22T05:24:51.919Z,21.13
2022-08-22T05:27:30.851Z,18.33
2022-08-22T05:30:08.860Z,19.13
2022-08-22T05:32:54.700Z,17.48
2022-08-22T05:35:34.976Z,18.73
2022-08-22T05:38:03.977Z,20.30
2022-08-22T05:40:33.552Z,17.63
2022-08-22T05:43:00.857Z,14.60
2022-08-22T05:45:29.173Z,17.58
2022-08-22T05:48:22.617Z,16.13
2022-08-22T05:50:58.394Z,17.70
2022-08-22T05:53:28.578Z,16.65
2022-08-22T05:56:08.965Z,16.30
2022-08-22T05:58:39.091Z,14.43
2022-08-22T06:01:33.799Z,18.95
2022-08-22T06:04:22.005Z,16.75
2022-08-22T06:07:21.013Z,21.33
2022-08-22T06:09:47.605Z,16.70
2022-08-22T06:12:26.975Z,20.33
2022-08-22T06:15:21.019Z,21.77
2022-08-22T06:17:52.358Z,18.33
2022-08-22T06:20:43.814Z,21.42
2022-08-22T06:23:17.102Z,21.02
2022-08-22T06:25:47.294Z,15.88
2022-08-22T06:28:22.970Z,20.17
2022-08-22T06:30:52.830Z,14.35
2022-08-22T06:33:27.007Z,18.67
2022-08-22T06:36:30.658Z,14.02
2022-08-22T06:39:06.243Z,17.35
2022-08-22T06:41:39.640Z,18.77
2022-08-22T06:44:16.105Z,20.45
2022-08-22T06:46:46.284Z,22.38
2022-08-22T06:49:15.587Z,17.40
2022-08-22T06:51:43.763Z,22.90
2022-08-22T06:54:18.621Z,16.85
2022-08-22T06:56:48.916Z,23.98
2022-08-22T06:59:20.618Z,21.52
2022-08-22T07:01:47.421Z,17.92
2022-08-22T07:04:16.037Z,26.70
2022-08-22T07:06:50.385Z,25.52
2022-08-22T07:09:24.352Z,28.05
2022-08-22T07:11:53.302Z,24.33
2022-08-22T07:14:41.068Z,23.27
2022-08-22T07:17:14.594Z,26.90
2022-08-22T07:19:48.693Z,27.55
2022-08-22T07:22:28.727Z,21.00
2022-08-22T07:25:13.021Z,25.65
2022-08-22T07:28:17.093Z,23.92
2022-08-22T07:30:57.623Z,28.33
2022-08-22T07:34:07.466Z,24.70
2022-08-22T07:36:54.811Z,23.77
2022-08-22T07:39:35.836Z,22.38
2022-08-22T07:42:22.375Z,27.52
2022-08-22T07:44:49.347Z,33.58
2022-08-22T07:47:26.097Z,26.83
2022-08-22T07:50:05.038Z,24.17
2022-08-22T07:52:42.646Z,21.73
2022-08-22T07:55:19.078Z,21.65
2022-08-22T07:58:07.771Z,23.58
2022-08-22T08:00:41.246Z,22.17
2022-08-22T08:03:09.359Z,20.55
2022-08-22T08:05:38.264Z,24.92
2022-08-22T08:08:13.853Z,20.27
2022-08-22T08:10:42.894Z,23.70
2022-08-22T08:13:17.276Z,26.98
2022-08-22T08:15:45.723Z,23.65
2022-08-22T08:18:21.902Z,22.48
2022-08-22T08:20:58.783Z,24.88
2022-08-22T08:23:34.920Z,22.40
2022-08-22T08:26:13.509Z,21.00
2022-08-22T08:28:45.693Z,19.25
2022-08-22T08:31:15.983Z,24.23
2022-08-22T08:33:47.438Z,19.27
2022-08-22T08:36:26.629Z,16.35
2022-08-22T08:39:02.704Z,17.48
2022-08-22T08:41:46.314Z,20.80
2022-08-22T08:44:23.805Z,19.08
2022-08-22T08:46:59.565Z,20.58
2022-08-22T08:50:07.748Z,16.98
2022-08-22T08:53:15.374Z,18.65
2022-08-22T08:55:59.587Z,12.15
2022-08-22T08:59:00.131Z,15.25
2022-08-22T09:01:44.827Z,17.65
2022-08-22T09:05:08.229Z,22.45
2022-08-22T09:08:17.153Z,16.70
2022-08-22T09:10:54.117Z,19.75
2022-08-22T09:13:53.725Z,15.52
2022-08-22T09:20:17.858Z,19.33
2022-08-22T09:23:13.774Z,17.38
2022-08-22T09:26:00.971Z,16.75
2022-08-22T09:28:56.031Z,16.65
2022-08-22T09:31:44.925Z,14.68
2022-08-22T09:34:47.750Z,8.32
2022-08-22T09:37:33.939Z,14.07
2022-08-22T09:43:06.534Z,18.20
2022-08-22T09:45:39.743Z,17.85
2022-08-22T09:48:31.616Z,16.67
2022-08-22T09:51:31.908Z,22.33
2022-08-22T09:54:11.390Z,14.52
2022-08-22T09:56:46.388Z,18.55
2022-08-22T09:59:19.459Z,14.43
2022-08-22T10:01:50.495Z,15.32
2022-08-22T10:04:40.287Z,17.50
2022-08-22T10:07:15.676Z,16.30
2022-08-22T10:09:57.208Z,18.83
2022-08-22T10:12:36.394Z,16.65
2022-08-22T10:15:45.496Z,17.88
2022-08-22T10:18:26.192Z,19.35
2022-08-22T10:21:21.364Z,15.98
2022-08-22T10:24:01.448Z,17.73
2022-08-22T10:26:44.353Z,13.40
2022-08-22T10:32:14.442Z,17.35
2022-08-22T10:34:47.406Z,15.68
2022-08-22T10:37:39.677Z,18.40
2022-08-22T10:40:25.610Z,15.88
2022-08-22T10:43:01.454Z,23.75
2022-08-22T10:45:36.269Z,15.75
2022-08-22T10:48:09.994Z,19.88
2022-08-22T10:50:39.692Z,15.48
2022-08-22T10:53:35.357Z,14.27
2022-08-22T10:56:21.713Z,19.55
2022-08-22T10:59:16.114Z,15.70
2022-08-22T11:01:55.613Z,14.20
2022-08-22T11:04:37.880Z,19.08
2022-08-22T11:07:39.581Z,19.17
2022-08-22T11:10:42.209Z,21.55
2022-08-22T11:13:31.117Z,17.13
2022-08-22T11:16:26.100Z,18.60
2022-08-22T11:19:18.831Z,15.20
2022-08-22T11:22:17.038Z,11.07
2022-08-22T11:25:11.975Z,12.23
2022-08-22T11:28:11.557Z,12.50
2022-08-22T11:30:50.507Z,18.55
2022-08-22T11:33:47.821Z,18.33
2022-08-22T11:36:39.042Z,13.07
2022-08-22T11:39:38.839Z,16.48
2022-08-22T11:42:13.645Z,15.80
2022-08-22T11:45:06.813Z,11.98
2022-08-22T11:47:45.246Z,20.38
2022-08-22T11:50:30.237Z,13.25
2022-08-22T11:53:25.313Z,13.90
2022-08-22T11:56:12.718Z,14.38
2022-08-22T11:59:22.419Z,18.95
2022-08-22T12:02:00.364Z,18.05
2022-08-22T12:04:30.426Z,15.80
2022-08-22T12:07:24.750Z,18.50
2022-08-22T12:10:01.774Z,15.77
2022-08-22T12:12:38.509Z,18.27
2022-08-22T12:15:27.407Z,16.50
2022-08-22T12:18:21.578Z,15.27
2022-08-22T12:20:48.487Z,16.70
2022-08-22T12:23:48.466Z,13.43
2022-08-22T12:26:25.684Z,15.45
2022-08-22T12:29:45.161Z,13.13
2022-08-22T12:32:15.159Z,19.65
2022-08-22T12:35:13.665Z,17.17
2022-08-22T12:37:55.660Z,10.43
2022-08-22T12:40:49.839Z,11.80
2022-08-22T12:43:36.511Z,15.40
2022-08-22T12:46:17.700Z,16.67
2022-08-22T12:48:54.300Z,13.68
2022-08-22T12:51:49.144Z,14.38
2022-08-22T12:54:21.912Z,11.18
2022-08-22T12:57:01.696Z,11.82
2022-08-22T12:59:36.448Z,11.90
2022-08-22T13:02:23.736Z,18.60
2022-08-22T13:04:59.581Z,13.88
2022-08-22T13:07:32.832Z,19.02
2022-08-22T13:10:21.889Z,13.85
2022-08-22T13:12:53.932Z,15.52
2022-08-22T13:17:51.627Z,14.65
2022-08-22T13:20:27.318Z,10.45
2022-08-22T13:22:54.869Z,10.05
2022-08-22T13:25:25.882Z,15.13
2022-08-22T13:27:59.985Z,12.70
2022-08-22T13:30:39.587Z,15.38
2022-08-22T13:33:13.723Z,17.33
2022-08-22T13:35:51.911Z,13.38
2022-08-22T13:38:58.795Z,14.90
2022-08-22T13:41:48.875Z,21.80
2022-08-22T13:44:29.666Z,14.18
2022-08-22T13:47:14.336Z,15.10
2022-08-22T13:49:50.231Z,20.77
2022-08-22T13:52:38.217Z,8.10
2022-08-22T13:55:31.711Z,14.05
2022-08-22T13:58:24.951Z,9.80
2022-08-22T14:01:12.316Z,9.35
2022-08-22T14:04:31.932Z,15.65
2022-08-22T14:07:05.928Z,12.10
2022-08-22T14:09:32.939Z,11.38
2022-08-22T14:12:22.364Z,9.80
2022-08-22T14:14:59.993Z,9.10
2022-08-22T14:17:36.690Z,10.73
2022-08-22T14:23:18.425Z,11.13
2022-08-22T14:25:45.495Z,13.50
2022-08-22T14:28:35.533Z,11.60
2022-08-22T14:31:14.136Z,12.50
2022-08-22T14:33:48.857Z,13.40
2022-08-22T14:36:44.165Z,12.32
2022-08-22T14:39:35.572Z,12.30
2022-08-22T14:42:12.597Z,8.05
2022-08-22T14:44:50.465Z,11.38
2022-08-22T14:48:14.163Z,10.10
2022-08-22T14:50:43.094Z,11.48
2022-08-22T14:53:19.070Z,10.88
2022-08-22T14:56:07.634Z,8.38
2022-08-22T14:58:45.302Z,9.68
2022-08-22T15:01:15.677Z,9.38
2022-08-22T15:03:50.760Z,10.50
2022-08-22T15:06:50.730Z,10.95
2022-08-22T15:09:34.210Z,11.27
2022-08-22T15:12:04.002Z,14.43
2022-08-22T15:14:37.669Z,10.77
2022-08-22T15:17:08.291Z,15.40
2022-08-22T15:19:41.010Z,12.60
2022-08-22T15:22:25.592Z,10.93
2022-08-22T15:25:19.710Z,11.80
2022-08-22T15:28:05.268Z,9.95
2022-08-22T15:30:44.473Z,15.18
2022-08-22T15:33:29.515Z,9.18
2022-08-22T15:36:15.864Z,10.00
2022-08-22T15:38:46.921Z,9.57
2022-08-22T15:41:36.557Z,9.32
2022-08-22T15:44:30.784Z,14.43
2022-08-22T15:47:24.371Z,10.45
2022-08-22T15:49:58.988Z,9.25
2022-08-22T15:52:31.739Z,6.63
2022-08-22T15:55:07.674Z,11.07
2022-08-22T15:57:40.208Z,11.05
2022-08-22T16:00:29.516Z,15.25
2022-08-22T16:03:28.543Z,8.25
2022-08-22T16:06:01.781Z,10.45
2022-08-22T16:08:36.946Z,8.52
2022-08-22T16:11:03.889Z,11.38
2022-08-22T16:13:30.545Z,7.30
2022-08-22T16:16:02.680Z,10.93
2022-08-22T16:18:36.922Z,9.97
2022-08-22T16:21:11.537Z,8.75
2022-08-22T16:23:51.051Z,19.27
2022-08-22T16:26:30.008Z,10.90
2022-08-22T16:29:17.848Z,11.23
2022-08-22T16:31:47.816Z,9.38
2022-08-22T16:34:18.038Z,10.30
2022-08-22T16:36:50.859Z,9.80
2022-08-22T16:39:23.860Z,9.05
2022-08-22T16:42:15.498Z,11.95
2022-08-22T16:44:47.221Z,13.40
2022-08-22T16:47:23.719Z,13.18
2022-08-22T16:49:51.109Z,10.00
2022-08-22T16:52:20.849Z,12.70
2022-08-22T16:54:53.857Z,7.57
2022-08-22T16:58:05.744Z,11.35
2022-08-22T17:01:04.293Z,11.07
2022-08-22T17:03:40.185Z,8.32
2022-08-22T17:06:46.490Z,7.68
2022-08-22T17:09:30.290Z,7.05
2022-08-22T17:12:20.358Z,12.48
2022-08-22T17:14:56.235Z,23.17
2022-08-22T17:17:28.994Z,11.95
2022-08-22T17:20:04.946Z,11.63
2022-08-22T17:22:44.577Z,6.22
2022-08-22T17:25:22.035Z,14.48
2022-08-22T17:28:13.711Z,10.05
2022-08-22T17:31:15.664Z,5.38
2022-08-22T17:34:09.001Z,9.48
2022-08-22T17:36:54.696Z,9.38
2022-08-22T17:39:51.933Z,7.53
2022-08-22T17:43:03.321Z,12.77
2022-08-22T17:45:39.388Z,11.27
2022-08-22T17:48:19.092Z,10.05
2022-08-22T17:51:16.297Z,9.50
2022-08-22T17:53:54.700Z,12.80
2022-08-22T17:56:32.590Z,11.00
2022-08-22T17:59:20.340Z,10.63
2022-08-22T18:01:47.884Z,8.40
2022-08-22T18:04:44.417Z,8.55
2022-08-22T18:07:44.675Z,9.38
2022-08-22T18:10:27.316Z,11.27
2022-08-22T18:13:08.150Z,12.93
2022-08-22T18:15:56.954Z,10.98
2022-08-22T18:18:30.354Z,12.07
2022-08-22T18:21:11.596Z,11.13
2022-08-22T18:23:45.450Z,7.63
2022-08-22T18:26:36.555Z,14.45
2022-08-22T18:29:23.278Z,8.40
2022-08-22T18:32:12.537Z,10.60
2022-08-22T18:34:40.936Z,13.55
2022-08-22T18:37:49.755Z,13.32
2022-08-22T18:40:23.138Z,15.30
2022-08-22T18:42:56.120Z,11.75
2022-08-22T18:45:45.503Z,12.88
2022-08-22T18:48:34.064Z,14.30
2022-08-22T18:51:28.956Z,11.73
2022-08-22T18:54:23.108Z,9.93
2022-08-22T18:57:02.837Z,11.80
2022-08-22T18:59:48.457Z,11.18
2022-08-22T19:02:35.720Z,10.73
2022-08-22T19:05:39.153Z,8.95
2022-08-22T19:08:38.842Z,7.70
2022-08-22T19:11:43.120Z,10.65
2022-08-22T19:14:17.212Z,12.00
2022-08-22T19:16:50.297Z,8.73
2022-08-22T19:20:16.223Z,20.02
2022-08-22T19:22:44.370Z,7.45
2022-08-22T19:25:21.153Z,11.10
2022-08-22T19:28:09.397Z,9.18
2022-08-22T19:30:51.027Z,12.80
2022-08-22T19:33:38.441Z,12.25
2022-08-22T19:36:11.936Z,10.93
2022-08-22T19:39:02.547Z,9.75
2022-08-22T19:42:20.087Z,13.13
2022-08-22T19:44:48.263Z,16.42
2022-08-22T19:47:18.198Z,15.23
2022-08-22T19:49:50.187Z,10.10
2022-08-22T19:52:32.471Z,10.52
2022-08-22T19:55:02.280Z,11.80
2022-08-22T19:57:49.449Z,9.75
2022-08-22T20:00:22.047Z,11.73
2022-08-22T20:02:57.646Z,9.30
2022-08-22T20:05:44.878Z,11.88
2022-08-22T20:08:42.308Z,14.82
2022-08-22T20:11:37.663Z,14.77
2022-08-22T20:14:20.155Z,11.20
2022-08-22T20:17:03.513Z,7.30
2022-08-22T20:22:20.310Z,10.00
2022-08-22T20:25:43.187Z,10.48
2022-08-22T20:28:32.719Z,8.82
2022-08-22T20:31:05.721Z,10.05
2022-08-22T20:33:37.035Z,9.45
2022-08-22T20:36:18.510Z,8.10
2022-08-22T20:39:00.385Z,12.13
2022-08-22T20:41:38.875Z,13.90
2022-08-22T20:44:12.462Z,11.73
2022-08-22T20:46:43.809Z,13.77
2022-08-22T20:49:23.766Z,10.30
2022-08-22T20:51:53.738Z,10.43
2022-08-22T20:54:24.126Z,9.73
2022-08-22T20:57:01.780Z,9.95
2022-08-22T20:59:39.179Z,11.45
2022-08-22T21:02:27.249Z,11.95
2022-08-22T21:05:00.494Z,9.25
2022-08-22T21:07:29.292Z,6.38
2022-08-22T21:10:22.301Z,11.35
2022-08-22T21:13:15.739Z,11.65
2022-08-22T21:18:14.584Z,8.45
2022-08-22T21:20:41.683Z,9.95
2022-08-22T21:23:19.628Z,15.63
2022-08-22T21:25:59.869Z,15.80
2022-08-22T21:28:55.076Z,9.93
2022-08-22T21:31:24.951Z,10.32
2022-08-22T21:33:53.381Z,13.00
2022-08-22T21:36:23.931Z,10.18
2022-08-22T21:39:01.439Z,8.95
2022-08-22T21:41:48.092Z,12.88
2022-08-22T21:44:24.030Z,12.57
2022-08-22T21:46:50.675Z,11.60
2022-08-22T21:49:27.883Z,10.55
2022-08-22T21:51:55.056Z,11.52
2022-08-22T21:54:25.138Z,7.80
2022-08-22T21:56:55.624Z,7.32
2022-08-22T21:59:50.544Z,13.55
2022-08-22T22:02:37.136Z,9.32
2022-08-22T22:05:08.964Z,13.20
2022-08-22T22:07:38.946Z,9.10
2022-08-22T22:10:08.865Z,11.38
2022-08-22T22:12:37.857Z,7.50
2022-08-22T22:15:05.049Z,8.75
2022-08-22T22:17:31.872Z,6.80
2022-08-22T22:19:58.839Z,7.43
2022-08-22T22:22:25.561Z,7.65
2022-08-22T22:24:52.889Z,11.75
2022-08-22T22:27:19.577Z,11.85
2022-08-22T22:29:46.341Z,9.35
2022-08-22T22:32:12.993Z,10.60
2022-08-22T22:34:39.650Z,9.13
2022-08-22T22:37:11.774Z,6.22
2022-08-22T22:39:38.947Z,11.27
2022-08-22T22:42:05.905Z,9.88
2022-08-22T22:44:33.642Z,7.95
2022-08-22T22:47:02.299Z,10.40
2022-08-22T22:49:31.485Z,15.75
2022-08-22T22:52:01.849Z,12.32
2022-08-22T22:54:29.652Z,16.40
2022-08-22T22:56:56.690Z,14.50
2022-08-22T22:59:25.986Z,9.98
2022-08-22T23:02:00.154Z,8.68
2022-08-22T23:04:28.310Z,8.90
2022-08-22T23:06:55.142Z,13.27
2022-08-22T23:09:23.770Z,10.90
2022-08-22T23:12:06.010Z,19.70
2022-08-22T23:14:34.793Z,8.93
2022-08-22T23:17:02.462Z,8.98
2022-08-22T23:19:29.642Z,10.95
2022-08-22T23:21:58.530Z,15.65
2022-08-22T23:24:27.132Z,15.90
2022-08-22T23:26:54.803Z,7.82
2022-08-22T23:29:21.772Z,13.68
2022-08-22T23:32:05.552Z,9.65
2022-08-22T23:34:36.403Z,9.52
2022-08-22T23:37:06.448Z,10.18
2022-08-22T23:39:35.501Z,10.38
2022-08-22T23:42:02.664Z,9.65
2022-08-22T23:44:33.055Z,7.78
2022-08-22T23:47:00.624Z,9.50
2022-08-22T23:49:28.805Z,10.30
2022-08-22T23:51:56.623Z,11.30
2022-08-22T23:54:23.752Z,13.85
2022-08-22T23:56:53.605Z,12.23
2022-08-22T23:59:30.061Z,8.38
